LVBWN SAAR-SAAR
Flight info
| Callsign | LVBWN |
|---|---|
| Flight time | 0h 26m |
| Altitude | 5000 |
| Route | DCT ROS289020 DCT IAC ILS Y 20 |
| Aircraft | BT36/L-SG/C |
Departure
| Time | 2026-04-22 17:24 |
|---|---|
| Airport | Rosario Islas Malvinas International Airport (SAAR) |
Arrival
| Time | 2026-04-22 17:50 |
|---|---|
| Airport | Rosario Islas Malvinas International Airport (SAAR) |
| Time | Latitude | Longitude | Altitude | Speed | Heading |
|---|---|---|---|---|---|
| 2026-04-22 17:09 | -32.91804 | -60.78221 | 90 ft | 0 kts | 21° |
| 2026-04-22 17:13 | -32.91788 | -60.78224 | 90 ft | 5 kts | 307° |
| 2026-04-22 17:14 | -32.91747 | -60.78255 | 92 ft | 11 kts | 327° |
| 2026-04-22 17:14 | -32.91688 | -60.78274 | 90 ft | 12 kts | 21° |
| 2026-04-22 17:14 | -32.91603 | -60.78236 | 93 ft | 14 kts | 21° |
| 2026-04-22 17:14 | -32.91501 | -60.78190 | 90 ft | 17 kts | 20° |
| 2026-04-22 17:15 | -32.91422 | -60.78166 | 91 ft | 17 kts | 357° |
| 2026-04-22 17:15 | -32.91294 | -60.78280 | 90 ft | 18 kts | 322° |
| 2026-04-22 17:15 | -32.91198 | -60.78374 | 91 ft | 18 kts | 323° |
| 2026-04-22 17:15 | -32.91099 | -60.78463 | 90 ft | 18 kts | 327° |
| 2026-04-22 17:16 | -32.91031 | -60.78508 | 91 ft | 0 kts | 337° |
| 2026-04-22 17:20 | -32.90899 | -60.78571 | 93 ft | 27 kts | 352° |
| 2026-04-22 17:20 | -32.90434 | -60.78487 | 90 ft | 39 kts | 10° |
| 2026-04-22 17:21 | -32.90156 | -60.78423 | 90 ft | 41 kts | 11° |
| 2026-04-22 17:21 | -32.89575 | -60.78293 | 93 ft | 43 kts | 10° |
| 2026-04-22 17:22 | -32.89231 | -60.78218 | 90 ft | 5 kts | 193° |
| 2026-04-22 17:22 | -32.89240 | -60.78217 | 91 ft | 0 kts | 192° |
| 2026-04-22 17:23 | -32.89523 | -60.78280 | 93 ft | 86 kts | 191° |
| 2026-04-22 17:23 | -32.90215 | -60.78390 | 431 ft | 106 kts | 187° |
| 2026-04-22 17:24 | -32.90944 | -60.78496 | 1025 ft | 111 kts | 188° |
| 2026-04-22 17:24 | -32.91636 | -60.78668 | 1957 ft | 91 kts | 196° |
| 2026-04-22 17:24 | -32.92228 | -60.79034 | 2531 ft | 103 kts | 223° |
| 2026-04-22 17:24 | -32.92443 | -60.79826 | 3043 ft | 112 kts | 277° |
| 2026-04-22 17:25 | -32.91873 | -60.80519 | 3364 ft | 136 kts | 340° |
| 2026-04-22 17:25 | -32.90972 | -60.80810 | 3879 ft | 125 kts | 333° |
| 2026-04-22 17:25 | -32.90255 | -60.81344 | 4357 ft | 124 kts | 316° |
| 2026-04-22 17:25 | -32.89764 | -60.82123 | 4961 ft | 111 kts | 285° |
| 2026-04-22 17:26 | -32.89630 | -60.83051 | 5270 ft | 129 kts | 271° |
| 2026-04-22 17:26 | -32.89577 | -60.84190 | 5280 ft | 153 kts | 271° |
| 2026-04-22 17:26 | -32.89408 | -60.85514 | 5137 ft | 165 kts | 276° |
| 2026-04-22 17:26 | -32.89150 | -60.86827 | 5161 ft | 167 kts | 282° |
| 2026-04-22 17:27 | -32.88843 | -60.88172 | 5183 ft | 170 kts | 280° |
| 2026-04-22 17:27 | -32.88614 | -60.89568 | 5181 ft | 173 kts | 277° |
| 2026-04-22 17:27 | -32.88414 | -60.90981 | 5153 ft | 173 kts | 277° |
| 2026-04-22 17:27 | -32.88186 | -60.92387 | 5142 ft | 173 kts | 278° |
| 2026-04-22 17:28 | -32.87944 | -60.93784 | 5139 ft | 173 kts | 278° |
| 2026-04-22 17:28 | -32.87711 | -60.95187 | 5143 ft | 173 kts | 278° |
| 2026-04-22 17:28 | -32.87486 | -60.96594 | 5153 ft | 173 kts | 278° |
| 2026-04-22 17:28 | -32.87261 | -60.97989 | 5167 ft | 175 kts | 278° |
| 2026-04-22 17:29 | -32.87027 | -60.99407 | 5146 ft | 175 kts | 278° |
| 2026-04-22 17:29 | -32.86791 | -61.00825 | 5142 ft | 175 kts | 278° |
| 2026-04-22 17:29 | -32.86560 | -61.02243 | 5143 ft | 175 kts | 278° |
| 2026-04-22 17:29 | -32.86330 | -61.03659 | 5145 ft | 174 kts | 278° |
| 2026-04-22 17:30 | -32.86101 | -61.05074 | 5151 ft | 175 kts | 278° |
| 2026-04-22 17:30 | -32.85864 | -61.06498 | 5157 ft | 176 kts | 278° |
| 2026-04-22 17:30 | -32.85629 | -61.07925 | 5147 ft | 176 kts | 278° |
| 2026-04-22 17:30 | -32.85397 | -61.09354 | 5153 ft | 177 kts | 278° |
| 2026-04-22 17:31 | -32.85170 | -61.10769 | 5149 ft | 176 kts | 278° |
| 2026-04-22 17:31 | -32.84932 | -61.12197 | 5138 ft | 176 kts | 278° |
| 2026-04-22 17:31 | -32.84697 | -61.13624 | 5136 ft | 176 kts | 278° |
| 2026-04-22 17:31 | -32.84465 | -61.15047 | 5125 ft | 175 kts | 278° |
| 2026-04-22 17:32 | -32.84235 | -61.16463 | 5132 ft | 174 kts | 278° |
| 2026-04-22 17:32 | -32.84004 | -61.17877 | 5131 ft | 174 kts | 278° |
| 2026-04-22 17:32 | -32.83426 | -61.19129 | 5133 ft | 180 kts | 317° |
| 2026-04-22 17:32 | -32.82270 | -61.19622 | 5133 ft | 185 kts | 358° |
| 2026-04-22 17:33 | -32.81400 | -61.19557 | 5141 ft | 186 kts | 5° |
| 2026-04-22 17:33 | -32.79751 | -61.19792 | 5133 ft | 182 kts | 325° |
| 2026-04-22 17:33 | -32.79018 | -61.20936 | 5129 ft | 174 kts | 282° |
| 2026-04-22 17:33 | -32.79154 | -61.22303 | 5131 ft | 168 kts | 238° |
| 2026-04-22 17:34 | -32.80061 | -61.23097 | 5132 ft | 167 kts | 193° |
| 2026-04-22 17:34 | -32.81197 | -61.22880 | 5141 ft | 169 kts | 160° |
| 2026-04-22 17:34 | -32.82236 | -61.22217 | 5143 ft | 172 kts | 144° |
| 2026-04-22 17:34 | -32.82953 | -61.21067 | 5143 ft | 175 kts | 123° |
| 2026-04-22 17:35 | -32.83448 | -61.19758 | 5141 ft | 177 kts | 114° |
| 2026-04-22 17:35 | -32.83851 | -61.18374 | 5140 ft | 178 kts | 111° |
| 2026-04-22 17:35 | -32.84187 | -61.16955 | 5137 ft | 179 kts | 105° |
| 2026-04-22 17:35 | -32.84403 | -61.15499 | 5139 ft | 179 kts | 102° |
| 2026-04-22 17:36 | -32.84613 | -61.14036 | 5136 ft | 179 kts | 103° |
| 2026-04-22 17:36 | -32.84859 | -61.12584 | 5144 ft | 179 kts | 105° |
| 2026-04-22 17:36 | -32.85113 | -61.11131 | 5140 ft | 179 kts | 104° |
| 2026-04-22 17:36 | -32.85353 | -61.09673 | 5146 ft | 180 kts | 104° |
| 2026-04-22 17:37 | -32.85582 | -61.08210 | 5153 ft | 180 kts | 103° |
| 2026-04-22 17:37 | -32.85816 | -61.06765 | 5150 ft | 181 kts | 104° |
| 2026-04-22 17:37 | -32.86023 | -61.05291 | 5150 ft | 183 kts | 93° |
| 2026-04-22 17:37 | -32.85581 | -61.03883 | 5145 ft | 188 kts | 51° |
| 2026-04-22 17:38 | -32.84485 | -61.03063 | 5143 ft | 188 kts | 23° |
| 2026-04-22 17:38 | -32.83322 | -61.02345 | 5157 ft | 189 kts | 29° |
| 2026-04-22 17:38 | -32.82189 | -61.01562 | 5145 ft | 188 kts | 31° |
| 2026-04-22 17:38 | -32.81091 | -61.00713 | 5155 ft | 189 kts | 35° |
| 2026-04-22 17:39 | -32.80016 | -60.99814 | 5147 ft | 189 kts | 36° |
| 2026-04-22 17:39 | -32.79008 | -60.98812 | 5152 ft | 189 kts | 43° |
| 2026-04-22 17:39 | -32.77110 | -60.96662 | 5159 ft | 190 kts | 45° |
| 2026-04-22 17:40 | -32.76219 | -60.95511 | 5143 ft | 189 kts | 52° |
| 2026-04-22 17:40 | -32.75415 | -60.94279 | 5143 ft | 188 kts | 54° |
| 2026-04-22 17:40 | -32.74651 | -60.93012 | 5162 ft | 189 kts | 58° |
| 2026-04-22 17:40 | -32.73953 | -60.91687 | 5142 ft | 189 kts | 60° |
| 2026-04-22 17:41 | -32.73285 | -60.90353 | 5143 ft | 188 kts | 61° |
| 2026-04-22 17:41 | -32.72660 | -60.88996 | 5138 ft | 187 kts | 66° |
| 2026-04-22 17:41 | -32.72138 | -60.87590 | 5122 ft | 185 kts | 69° |
| 2026-04-22 17:41 | -32.71655 | -60.86199 | 5126 ft | 184 kts | 70° |
| 2026-04-22 17:42 | -32.71226 | -60.84771 | 5125 ft | 183 kts | 77° |
| 2026-04-22 17:42 | -32.70905 | -60.83286 | 4988 ft | 187 kts | 79° |
| 2026-04-22 17:42 | -32.70618 | -60.81786 | 4841 ft | 186 kts | 81° |
| 2026-04-22 17:42 | -32.70379 | -60.80279 | 4664 ft | 185 kts | 85° |
| 2026-04-22 17:43 | -32.70226 | -60.78789 | 4434 ft | 180 kts | 88° |
| 2026-04-22 17:43 | -32.70145 | -60.77324 | 4208 ft | 176 kts | 94° |
| 2026-04-22 17:43 | -32.70209 | -60.75885 | 3967 ft | 173 kts | 98° |
| 2026-04-22 17:43 | -32.70323 | -60.74472 | 3722 ft | 171 kts | 101° |
| 2026-04-22 17:44 | -32.70666 | -60.73190 | 3465 ft | 163 kts | 131° |
| 2026-04-22 17:44 | -32.71624 | -60.72610 | 3239 ft | 158 kts | 178° |
| 2026-04-22 17:44 | -32.72608 | -60.73087 | 3090 ft | 157 kts | 218° |
| 2026-04-22 17:44 | -32.73389 | -60.74019 | 2873 ft | 161 kts | 226° |
| 2026-04-22 17:45 | -32.74166 | -60.74972 | 2637 ft | 160 kts | 212° |
| 2026-04-22 17:45 | -32.75238 | -60.75246 | 2402 ft | 160 kts | 181° |
| 2026-04-22 17:45 | -32.76353 | -60.75256 | 2201 ft | 159 kts | 184° |
| 2026-04-22 17:45 | -32.77421 | -60.75455 | 2120 ft | 150 kts | 192° |
| 2026-04-22 17:46 | -32.78365 | -60.75722 | 2070 ft | 131 kts | 193° |
| 2026-04-22 17:46 | -32.79199 | -60.75953 | 2072 ft | 117 kts | 192° |
| 2026-04-22 17:46 | -32.79967 | -60.76141 | 2084 ft | 110 kts | 190° |
| 2026-04-22 17:46 | -32.80727 | -60.76294 | 1927 ft | 114 kts | 189° |
| 2026-04-22 17:47 | -32.81524 | -60.76453 | 1743 ft | 117 kts | 190° |
| 2026-04-22 17:47 | -32.82330 | -60.76627 | 1539 ft | 117 kts | 190° |
| 2026-04-22 17:47 | -32.83124 | -60.76811 | 1372 ft | 115 kts | 191° |
| 2026-04-22 17:47 | -32.83903 | -60.76992 | 1160 ft | 113 kts | 191° |
| 2026-04-22 17:48 | -32.84408 | -60.77111 | 1073 ft | 111 kts | 191° |
| 2026-04-22 17:48 | -32.85381 | -60.77335 | 910 ft | 101 kts | 192° |
| 2026-04-22 17:48 | -32.86043 | -60.77479 | 685 ft | 93 kts | 193° |
| 2026-04-22 17:48 | -32.86647 | -60.77614 | 522 ft | 85 kts | 192° |
| 2026-04-22 17:49 | -32.87275 | -60.77763 | 457 ft | 99 kts | 193° |
| 2026-04-22 17:49 | -32.87966 | -60.77921 | 357 ft | 103 kts | 193° |
| 2026-04-22 17:49 | -32.88658 | -60.78083 | 208 ft | 100 kts | 190° |
| 2026-04-22 17:49 | -32.89334 | -60.78221 | 124 ft | 95 kts | 191° |
| 2026-04-22 17:50 | -32.89964 | -60.78374 | 101 ft | 90 kts | 194° |
| 2026-04-22 17:50 | -32.90522 | -60.78504 | 91 ft | 70 kts | 194° |
| 2026-04-22 17:50 | -32.90910 | -60.78594 | 93 ft | 48 kts | 189° |
| 2026-04-22 17:50 | -32.91193 | -60.78658 | 93 ft | 36 kts | 191° |
| 2026-04-22 17:51 | -32.91415 | -60.78707 | 91 ft | 30 kts | 191° |
| 2026-04-22 17:51 | -32.91600 | -60.78737 | 90 ft | 25 kts | 173° |
| 2026-04-22 17:51 | -32.91740 | -60.78650 | 92 ft | 23 kts | 131° |
| 2026-04-22 17:51 | -32.91786 | -60.78512 | 92 ft | 19 kts | 78° |
| 2026-04-22 17:52 | -32.91756 | -60.78356 | 92 ft | 20 kts | 80° |
| 2026-04-22 17:52 | -32.91761 | -60.78249 | 90 ft | 11 kts | 163° |
| 2026-04-22 17:52 | -32.91832 | -60.78254 | 91 ft | 10 kts | 129° |
| 2026-04-22 17:52 | -32.91811 | -60.78224 | 91 ft | 3 kts | 25° |
| 2026-04-22 17:53 | -32.91806 | -60.78222 | 91 ft | 0 kts | 21° |